createdAt,value
2019-01-31T00:01:56.226Z,34.74
2019-01-31T00:04:22.616Z,34.68
2019-01-31T00:06:48.971Z,34.63
2019-01-31T00:09:15.318Z,34.68
2019-01-31T00:11:41.710Z,34.64
2019-01-31T00:14:08.040Z,34.68
2019-01-31T00:16:34.383Z,34.67
2019-01-31T00:19:00.715Z,34.70
2019-01-31T00:21:27.042Z,34.58
2019-01-31T00:23:53.431Z,34.67
2019-01-31T00:26:19.760Z,34.62
2019-01-31T00:28:46.116Z,34.65
2019-01-31T00:31:12.464Z,34.69
2019-01-31T00:33:38.805Z,34.70
2019-01-31T00:36:05.130Z,34.70
2019-01-31T00:38:31.521Z,34.74
2019-01-31T00:40:57.810Z,34.71
2019-01-31T00:43:24.231Z,34.81
2019-01-31T00:45:50.608Z,34.80
2019-01-31T00:48:16.881Z,34.79
2019-01-31T00:50:43.212Z,34.81
2019-01-31T00:53:09.586Z,34.76
2019-01-31T00:55:35.918Z,34.77
2019-01-31T00:58:02.346Z,34.78
2019-01-31T01:00:28.596Z,34.84
2019-01-31T01:02:54.931Z,34.54
2019-01-31T01:05:21.298Z,34.22
2019-01-31T01:07:47.630Z,34.40
2019-01-31T01:10:14.003Z,34.65
2019-01-31T01:12:40.361Z,34.43
2019-01-31T01:15:06.699Z,34.26
2019-01-31T01:17:33.074Z,34.32
2019-01-31T01:19:59.448Z,34.29
2019-01-31T01:22:25.784Z,34.33
2019-01-31T01:24:52.317Z,34.05
2019-01-31T01:27:18.654Z,33.91
2019-01-31T01:29:44.988Z,33.91
2019-01-31T01:32:11.311Z,33.88
2019-01-31T01:34:37.649Z,33.73
2019-01-31T01:37:04.027Z,33.89
2019-01-31T01:39:30.389Z,33.73
2019-01-31T01:41:56.717Z,33.84
2019-01-31T01:44:23.011Z,33.86
2019-01-31T01:46:49.340Z,33.80
2019-01-31T01:49:15.675Z,33.68
2019-01-31T01:51:42.012Z,33.63
2019-01-31T01:54:08.435Z,33.66
2019-01-31T01:56:34.832Z,33.58
2019-01-31T01:59:01.177Z,33.63
2019-01-31T02:01:27.507Z,33.35
2019-01-31T02:03:53.845Z,33.47
2019-01-31T02:06:20.212Z,33.63
2019-01-31T02:08:46.544Z,33.05
2019-01-31T02:11:13.048Z,32.94
2019-01-31T02:13:39.266Z,33.20
2019-01-31T02:16:05.621Z,33.20
2019-01-31T02:18:31.965Z,32.94
2019-01-31T02:20:58.410Z,32.81
2019-01-31T02:23:24.619Z,32.75
2019-01-31T02:25:50.951Z,32.59
2019-01-31T02:28:17.299Z,32.60
2019-01-31T02:30:43.623Z,32.48
2019-01-31T02:33:09.954Z,32.43
2019-01-31T02:35:36.330Z,32.41
2019-01-31T02:38:02.670Z,32.27
2019-01-31T02:40:29.038Z,32.33
2019-01-31T02:42:55.423Z,32.23
2019-01-31T02:45:21.744Z,32.33
2019-01-31T02:47:48.073Z,32.22
2019-01-31T02:50:14.414Z,32.10
2019-01-31T02:52:40.749Z,32.13
2019-01-31T02:55:07.123Z,32.09
2019-01-31T02:57:33.466Z,32.07
2019-01-31T02:59:59.789Z,31.94
2019-01-31T03:02:26.159Z,31.98
2019-01-31T03:04:52.505Z,32.01
2019-01-31T03:07:18.833Z,31.95
2019-01-31T03:09:54.545Z,31.90
2019-01-31T03:12:11.558Z,31.94
2019-01-31T03:14:37.879Z,31.94
2019-01-31T03:17:04.213Z,31.78
2019-01-31T03:19:30.560Z,31.93
2019-01-31T03:21:56.917Z,31.76
2019-01-31T03:24:23.277Z,31.78
2019-01-31T03:26:49.620Z,31.69
2019-01-31T03:29:15.965Z,31.74
2019-01-31T03:31:42.328Z,31.72
2019-01-31T03:34:08.654Z,31.64
2019-01-31T03:36:35.000Z,31.67
2019-01-31T03:39:01.348Z,31.60
2019-01-31T03:41:27.676Z,31.54
2019-01-31T03:43:54.032Z,31.56
2019-01-31T03:46:20.365Z,31.46
2019-01-31T03:48:46.696Z,31.44
2019-01-31T03:51:13.107Z,31.45
2019-01-31T03:53:39.565Z,31.40
2019-01-31T03:56:05.777Z,31.17
2019-01-31T03:58:32.115Z,31.18
2019-01-31T04:00:58.446Z,31.04
2019-01-31T04:03:24.834Z,30.94
2019-01-31T04:05:51.170Z,31.02
2019-01-31T04:08:17.546Z,30.93
2019-01-31T04:10:43.875Z,30.88
2019-01-31T04:13:10.263Z,30.89
2019-01-31T04:15:36.525Z,30.91
2019-01-31T04:18:02.863Z,30.95
2019-01-31T04:20:29.199Z,30.82
2019-01-31T04:22:55.539Z,30.85
2019-01-31T04:25:21.859Z,30.74
2019-01-31T04:27:48.209Z,31.11
2019-01-31T04:30:14.539Z,30.78
2019-01-31T04:32:40.871Z,30.65
2019-01-31T04:35:07.227Z,30.91
2019-01-31T04:37:33.576Z,30.70
2019-01-31T04:39:59.907Z,31.20
2019-01-31T04:42:26.241Z,30.87
2019-01-31T04:44:52.577Z,30.95
2019-01-31T04:47:18.910Z,30.51
2019-01-31T04:49:45.252Z,30.55
2019-01-31T04:52:11.630Z,30.64
2019-01-31T04:54:37.958Z,30.62
2019-01-31T04:57:04.348Z,30.43
2019-01-31T04:59:30.665Z,30.23
2019-01-31T05:01:57.022Z,30.18
2019-01-31T05:04:23.362Z,30.18
2019-01-31T05:06:49.705Z,30.16
2019-01-31T05:09:16.057Z,30.08
2019-01-31T05:11:42.396Z,29.88
2019-01-31T05:14:08.722Z,30.22
2019-01-31T05:16:35.073Z,30.05
2019-01-31T05:19:01.427Z,29.96
2019-01-31T05:21:27.774Z,29.78
2019-01-31T05:23:54.146Z,29.81
2019-01-31T05:26:20.516Z,30.14
2019-01-31T05:28:46.881Z,30.42
2019-01-31T05:31:13.242Z,30.07
2019-01-31T05:33:39.588Z,30.13
2019-01-31T05:36:06.008Z,29.95
2019-01-31T05:38:32.341Z,30.04
2019-01-31T05:40:58.681Z,30.00
2019-01-31T05:43:25.027Z,30.05
2019-01-31T05:45:51.357Z,29.88
2019-01-31T05:48:17.769Z,29.88
2019-01-31T05:50:44.105Z,29.81
2019-01-31T05:53:10.474Z,29.61
2019-01-31T05:55:36.796Z,29.80
2019-01-31T05:58:03.201Z,29.73
2019-01-31T06:00:29.532Z,29.89
2019-01-31T06:02:55.877Z,29.83
2019-01-31T06:05:22.256Z,29.93
2019-01-31T06:07:48.577Z,29.83
2019-01-31T06:10:14.926Z,29.82
2019-01-31T06:12:41.293Z,30.50
2019-01-31T06:15:07.624Z,30.31
2019-01-31T06:17:36.003Z,30.34
2019-01-31T06:20:02.376Z,30.37
2019-01-31T06:22:28.730Z,30.14
2019-01-31T06:24:55.060Z,30.27
2019-01-31T06:27:21.495Z,30.00
2019-01-31T06:29:47.810Z,30.43
2019-01-31T06:32:14.120Z,30.50
2019-01-31T06:34:40.488Z,30.99
2019-01-31T06:37:06.939Z,30.44
2019-01-31T06:39:33.318Z,30.36
2019-01-31T06:41:59.834Z,30.41
2019-01-31T06:44:26.216Z,30.59
2019-01-31T06:46:52.546Z,30.01
2019-01-31T06:49:18.901Z,30.16
2019-01-31T06:51:45.270Z,30.17
2019-01-31T06:54:11.642Z,30.38
2019-01-31T06:56:38.019Z,30.49
2019-01-31T06:59:04.373Z,30.35
2019-01-31T07:01:30.862Z,30.57
2019-01-31T07:03:57.268Z,30.35
2019-01-31T07:06:23.724Z,30.48
2019-01-31T07:08:50.441Z,29.98
2019-01-31T07:11:16.904Z,29.79
2019-01-31T07:13:43.326Z,30.09
2019-01-31T07:16:09.673Z,30.19
2019-01-31T07:18:42.853Z,30.26
2019-01-31T07:21:11.943Z,30.06
2019-01-31T07:23:38.283Z,30.18
2019-01-31T07:26:04.663Z,30.17
2019-01-31T07:28:31.152Z,30.08
2019-01-31T07:30:58.025Z,29.66
2019-01-31T07:33:24.431Z,30.82
2019-01-31T07:35:52.172Z,30.58
2019-01-31T07:38:17.151Z,30.29
2019-01-31T07:40:43.501Z,30.64
2019-01-31T07:43:09.912Z,30.08
2019-01-31T07:45:36.388Z,29.12
2019-01-31T07:48:02.860Z,29.41
2019-01-31T07:50:30.487Z,29.18
2019-01-31T07:52:57.011Z,29.78
2019-01-31T07:55:23.246Z,29.69
2019-01-31T07:57:49.893Z,29.61
2019-01-31T08:00:16.212Z,29.86
2019-01-31T08:02:42.672Z,29.83
2019-01-31T08:05:09.020Z,30.89
2019-01-31T08:07:35.394Z,29.88
2019-01-31T08:10:01.738Z,29.38
2019-01-31T08:12:28.148Z,29.05
2019-01-31T08:14:54.730Z,29.91
2019-01-31T08:17:21.052Z,29.43
2019-01-31T08:19:47.578Z,29.39
2019-01-31T08:22:13.926Z,29.46
2019-01-31T08:24:40.465Z,29.47
2019-01-31T08:27:06.798Z,29.31
2019-01-31T08:29:35.563Z,30.23
2019-01-31T08:32:01.925Z,30.03
2019-01-31T08:34:29.642Z,29.65
2019-01-31T08:36:54.988Z,29.43
2019-01-31T08:39:21.307Z,29.31
2019-01-31T08:41:48.152Z,29.40
2019-01-31T08:44:14.562Z,29.52
2019-01-31T08:46:40.981Z,29.43
2019-01-31T08:49:07.436Z,29.74
2019-01-31T08:51:33.763Z,29.30
2019-01-31T08:54:00.428Z,29.69
2019-01-31T08:56:26.850Z,29.79
2019-01-31T08:58:53.815Z,29.63
2019-01-31T09:01:20.400Z,29.77
2019-01-31T09:03:46.888Z,29.68
2019-01-31T09:06:15.062Z,29.53
2019-01-31T09:08:39.793Z,29.61
2019-01-31T09:11:06.045Z,29.66
2019-01-31T09:13:32.528Z,29.50
2019-01-31T09:15:59.382Z,29.36
2019-01-31T09:18:25.753Z,29.49
2019-01-31T09:20:52.090Z,29.67
2019-01-31T09:23:18.499Z,29.66
2019-01-31T09:25:44.863Z,29.53
2019-01-31T09:28:11.205Z,29.75
2019-01-31T09:30:37.599Z,29.37
2019-01-31T09:33:04.012Z,29.92
2019-01-31T09:35:30.366Z,29.56
2019-01-31T09:37:56.940Z,29.47
2019-01-31T09:40:23.176Z,29.59
2019-01-31T09:42:49.561Z,29.39
2019-01-31T09:45:15.891Z,29.32
2019-01-31T09:47:42.225Z,29.43
2019-01-31T09:50:08.603Z,29.53
2019-01-31T09:52:34.980Z,29.69
2019-01-31T09:55:01.314Z,29.47
2019-01-31T09:57:27.774Z,29.52
2019-01-31T09:59:54.119Z,29.68
2019-01-31T10:02:20.457Z,29.71
2019-01-31T10:04:46.793Z,29.42
2019-01-31T10:07:13.175Z,29.23
2019-01-31T10:09:39.631Z,29.11
2019-01-31T10:12:05.988Z,29.32
2019-01-31T10:14:32.385Z,29.30
2019-01-31T10:16:58.725Z,29.24
2019-01-31T10:19:25.188Z,29.23
2019-01-31T10:21:51.436Z,29.77
2019-01-31T10:24:17.835Z,29.53
2019-01-31T10:26:44.173Z,29.46
2019-01-31T10:29:10.686Z,29.45
2019-01-31T10:31:37.031Z,29.14
2019-01-31T10:34:03.436Z,29.24
2019-01-31T10:36:29.772Z,29.04
2019-01-31T10:38:56.180Z,29.13
2019-01-31T10:41:22.554Z,29.14
2019-01-31T10:43:48.953Z,29.27
2019-01-31T10:46:15.327Z,29.31
2019-01-31T10:48:41.659Z,29.30
2019-01-31T10:51:08.180Z,29.15
2019-01-31T10:53:34.575Z,29.21
2019-01-31T10:56:00.928Z,29.02
2019-01-31T10:58:27.275Z,28.99
2019-01-31T11:00:53.631Z,29.53
2019-01-31T11:03:20.036Z,29.87
2019-01-31T11:05:46.373Z,29.34
2019-01-31T11:08:12.816Z,29.56
2019-01-31T11:10:39.169Z,29.58
2019-01-31T11:13:05.607Z,29.40
2019-01-31T11:15:31.966Z,29.56
2019-01-31T11:17:58.328Z,29.56
2019-01-31T11:20:24.765Z,29.47
2019-01-31T11:22:51.098Z,29.57
2019-01-31T11:25:17.625Z,29.47
2019-01-31T11:27:43.973Z,29.44
2019-01-31T11:30:10.499Z,29.43
2019-01-31T11:32:38.602Z,29.18
2019-01-31T11:35:03.456Z,29.69
2019-01-31T11:37:29.889Z,29.76
2019-01-31T11:39:56.245Z,29.47
2019-01-31T11:42:22.663Z,29.29
2019-01-31T11:44:49.088Z,29.53
2019-01-31T11:47:15.457Z,29.75
2019-01-31T11:49:41.859Z,29.92
2019-01-31T11:52:08.403Z,29.53
2019-01-31T11:54:34.779Z,29.70
2019-01-31T11:57:05.591Z,29.71
2019-01-31T11:59:27.527Z,29.63
2019-01-31T12:01:54.306Z,29.73
2019-01-31T12:04:20.707Z,29.48
2019-01-31T12:06:47.063Z,30.20
2019-01-31T12:09:13.635Z,30.25
2019-01-31T12:11:40.961Z,30.31
2019-01-31T12:14:07.342Z,29.57
2019-01-31T12:16:33.725Z,29.85
2019-01-31T12:19:00.072Z,29.49
2019-01-31T12:21:26.521Z,29.40
2019-01-31T12:23:52.942Z,29.50
2019-01-31T12:26:19.428Z,29.78
2019-01-31T12:28:45.815Z,29.74
2019-01-31T12:31:12.183Z,29.70
2019-01-31T12:33:38.569Z,29.18
2019-01-31T12:36:05.011Z,29.47
2019-01-31T12:38:36.805Z,29.47
2019-01-31T12:40:58.867Z,29.46
2019-01-31T12:43:34.635Z,29.39
2019-01-31T12:45:51.677Z,29.36
2019-01-31T12:48:18.109Z,29.53
2019-01-31T12:50:44.528Z,29.41
2019-01-31T12:53:10.909Z,29.33
2019-01-31T12:55:37.370Z,29.76
2019-01-31T12:58:03.836Z,29.70
2019-01-31T13:00:30.189Z,29.37
2019-01-31T13:02:56.561Z,29.43
2019-01-31T13:05:22.919Z,29.21
2019-01-31T13:07:49.349Z,29.22
2019-01-31T13:10:15.692Z,29.41
2019-01-31T13:12:48.814Z,29.45
2019-01-31T13:15:09.469Z,29.47
2019-01-31T13:17:38.109Z,29.43
2019-01-31T13:20:04.393Z,29.45
2019-01-31T13:22:30.749Z,29.23
2019-01-31T13:24:57.110Z,29.26
2019-01-31T13:27:23.471Z,29.00
2019-01-31T13:29:49.825Z,28.79
2019-01-31T13:32:16.234Z,29.10
2019-01-31T13:34:42.676Z,28.86
2019-01-31T13:37:09.073Z,29.03
2019-01-31T13:39:35.427Z,29.08
2019-01-31T13:42:01.778Z,28.93
2019-01-31T13:44:28.182Z,28.98
2019-01-31T13:46:54.535Z,28.88
2019-01-31T13:49:20.916Z,29.23
2019-01-31T13:51:47.306Z,29.33
2019-01-31T13:54:13.650Z,28.79
2019-01-31T13:56:45.708Z,28.96
2019-01-31T13:59:06.450Z,28.66
2019-01-31T14:01:32.807Z,28.76
2019-01-31T14:03:59.364Z,28.69
2019-01-31T14:06:25.843Z,29.06
2019-01-31T14:08:52.327Z,29.01
2019-01-31T14:11:20.871Z,28.93
2019-01-31T14:13:47.332Z,29.06
2019-01-31T14:16:13.720Z,29.00
2019-01-31T14:18:42.180Z,29.09
2019-01-31T14:21:08.579Z,28.88
2019-01-31T14:23:35.021Z,29.40
2019-01-31T14:26:01.412Z,29.09
2019-01-31T14:28:27.989Z,28.82
2019-01-31T14:30:54.627Z,29.19
2019-01-31T14:33:20.913Z,29.06
2019-01-31T14:35:47.235Z,29.26
2019-01-31T14:38:13.626Z,29.20
2019-01-31T14:40:39.982Z,29.16
2019-01-31T14:43:06.364Z,29.10
2019-01-31T14:45:32.729Z,29.25
2019-01-31T14:47:59.106Z,29.29
2019-01-31T14:50:25.478Z,29.53
2019-01-31T14:52:51.840Z,29.75
2019-01-31T14:55:18.292Z,29.43
2019-01-31T14:57:44.651Z,29.50
2019-01-31T15:00:10.982Z,29.53
2019-01-31T15:02:37.334Z,29.50
2019-01-31T15:05:03.671Z,29.65
2019-01-31T15:07:30.149Z,29.82
2019-01-31T15:09:56.498Z,29.88
2019-01-31T15:12:22.828Z,30.03
2019-01-31T15:14:49.286Z,29.97
2019-01-31T15:17:15.605Z,30.24
2019-01-31T15:19:41.934Z,30.11
2019-01-31T15:22:08.270Z,30.41
2019-01-31T15:24:34.601Z,30.12
2019-01-31T15:27:01.004Z,30.10
2019-01-31T15:29:27.375Z,30.04
2019-01-31T15:31:56.182Z,29.98
2019-01-31T15:34:22.645Z,30.00
2019-01-31T15:36:49.044Z,29.86
2019-01-31T15:39:15.297Z,30.02
2019-01-31T15:41:41.682Z,30.12
2019-01-31T15:44:08.019Z,30.03
2019-01-31T15:46:34.420Z,30.56
2019-01-31T15:49:00.880Z,30.53
2019-01-31T15:51:27.307Z,30.37
2019-01-31T15:53:55.534Z,30.35
2019-01-31T15:56:21.878Z,30.29
2019-01-31T15:58:48.208Z,30.24
2019-01-31T16:01:14.551Z,30.72
2019-01-31T16:03:41.036Z,30.48
2019-01-31T16:06:07.389Z,30.31
2019-01-31T16:08:33.741Z,30.40
2019-01-31T16:11:00.117Z,31.43
2019-01-31T16:13:26.445Z,30.67
2019-01-31T16:15:56.061Z,30.85
2019-01-31T16:18:22.370Z,30.88
2019-01-31T16:20:48.745Z,30.91
2019-01-31T16:23:15.087Z,31.43
2019-01-31T16:25:41.571Z,30.45
2019-01-31T16:28:08.013Z,30.15
2019-01-31T16:30:34.488Z,30.61
2019-01-31T16:33:00.737Z,30.72
2019-01-31T16:35:27.072Z,30.74
2019-01-31T16:37:53.429Z,30.58
2019-01-31T16:40:19.771Z,30.42
2019-01-31T16:42:46.162Z,30.72
2019-01-31T16:45:12.521Z,30.72
2019-01-31T16:47:38.928Z,30.94
2019-01-31T16:50:05.387Z,30.91
2019-01-31T16:52:31.750Z,31.18
2019-01-31T16:54:58.107Z,30.86
2019-01-31T16:57:24.492Z,30.66
2019-01-31T16:59:50.848Z,30.66
2019-01-31T17:02:17.210Z,30.69
2019-01-31T17:04:43.553Z,30.72
2019-01-31T17:07:09.960Z,30.74
2019-01-31T17:09:39.392Z,30.55
2019-01-31T17:12:04.696Z,30.49
2019-01-31T17:14:31.035Z,30.53
2019-01-31T17:16:57.404Z,30.70
2019-01-31T17:19:23.870Z,30.53
2019-01-31T17:21:50.218Z,30.65
2019-01-31T17:24:16.665Z,30.57
2019-01-31T17:26:43.009Z,30.53
2019-01-31T17:29:09.396Z,30.59
2019-01-31T17:31:35.735Z,30.27
2019-01-31T17:34:02.076Z,30.50
2019-01-31T17:36:28.536Z,30.56
2019-01-31T17:38:54.907Z,30.49
2019-01-31T17:41:21.349Z,30.38
2019-01-31T17:43:48.282Z,30.60
2019-01-31T17:46:13.972Z,30.62
2019-01-31T17:48:40.384Z,30.69
2019-01-31T17:51:06.721Z,30.44
2019-01-31T17:53:33.045Z,30.49
2019-01-31T17:55:59.394Z,30.60
2019-01-31T17:58:25.715Z,30.57
2019-01-31T18:00:52.046Z,30.64
2019-01-31T18:03:18.416Z,30.41
2019-01-31T18:05:44.798Z,30.52
2019-01-31T18:08:11.125Z,30.50
2019-01-31T18:10:37.534Z,30.47
2019-01-31T18:13:05.611Z,30.45
2019-01-31T18:15:41.177Z,30.58
2019-01-31T18:17:56.568Z,30.66
2019-01-31T18:20:22.964Z,30.63
2019-01-31T18:22:49.314Z,30.66
2019-01-31T18:25:15.645Z,30.73
2019-01-31T18:27:41.978Z,30.66
2019-01-31T18:30:08.306Z,30.68
2019-01-31T18:32:34.682Z,30.72
2019-01-31T18:35:01.040Z,30.62
2019-01-31T18:37:27.433Z,30.56
2019-01-31T18:39:53.732Z,30.58
2019-01-31T18:42:20.138Z,30.57
2019-01-31T18:44:46.449Z,30.59
2019-01-31T18:47:12.791Z,30.59
2019-01-31T18:49:39.145Z,30.51
2019-01-31T18:52:05.495Z,30.46
2019-01-31T18:54:31.860Z,30.55
2019-01-31T18:56:58.203Z,30.56
2019-01-31T18:59:24.538Z,30.59
2019-01-31T19:01:50.909Z,30.59
2019-01-31T19:04:17.263Z,30.50
2019-01-31T19:06:43.614Z,30.44
2019-01-31T19:09:09.983Z,30.46
2019-01-31T19:11:36.359Z,30.52
2019-01-31T19:14:02.691Z,30.55
2019-01-31T19:16:29.013Z,30.57
2019-01-31T19:18:55.352Z,30.54
2019-01-31T19:21:21.699Z,30.55
2019-01-31T19:23:48.043Z,30.54
2019-01-31T19:26:14.432Z,30.56
2019-01-31T19:28:40.772Z,30.55
2019-01-31T19:31:07.099Z,30.56
2019-01-31T19:33:33.438Z,30.51
2019-01-31T19:35:59.811Z,30.40
2019-01-31T19:38:26.211Z,30.40
2019-01-31T19:40:52.539Z,30.50
2019-01-31T19:43:18.912Z,30.52
2019-01-31T19:45:45.297Z,30.49
2019-01-31T19:48:11.647Z,30.53
2019-01-31T19:50:38.033Z,30.46
2019-01-31T19:53:04.409Z,30.50
2019-01-31T19:55:30.739Z,30.50
2019-01-31T19:57:57.178Z,30.58
2019-01-31T20:00:23.456Z,30.48
2019-01-31T20:02:49.794Z,30.56
2019-01-31T20:05:16.135Z,30.59
2019-01-31T20:07:42.564Z,30.55
2019-01-31T20:10:08.912Z,30.54
2019-01-31T20:12:35.290Z,30.43
2019-01-31T20:15:01.574Z,30.46
2019-01-31T20:17:27.928Z,30.43
2019-01-31T20:19:54.267Z,30.37
2019-01-31T20:22:20.624Z,30.42
2019-01-31T20:24:46.956Z,30.43
2019-01-31T20:27:13.322Z,30.44
2019-01-31T20:29:39.654Z,30.46
2019-01-31T20:32:06.002Z,30.42
2019-01-31T20:34:32.327Z,30.43
2019-01-31T20:36:58.657Z,30.50
2019-01-31T20:39:25.032Z,30.44
2019-01-31T20:41:54.463Z,30.40
2019-01-31T20:44:17.726Z,30.70
2019-01-31T20:46:44.109Z,30.47
2019-01-31T20:49:10.457Z,30.49
2019-01-31T20:51:36.779Z,30.52
2019-01-31T20:54:03.185Z,30.39
2019-01-31T20:56:29.550Z,30.51
2019-01-31T20:58:55.924Z,30.46
2019-01-31T21:01:22.272Z,30.53
2019-01-31T21:03:49.676Z,30.40
2019-01-31T21:06:15.063Z,30.39
2019-01-31T21:08:41.388Z,30.34
2019-01-31T21:11:07.803Z,30.37
2019-01-31T21:13:34.090Z,30.45
2019-01-31T21:16:00.533Z,30.49
2019-01-31T21:18:26.881Z,30.50
2019-01-31T21:20:53.265Z,30.43
2019-01-31T21:23:19.621Z,30.35
2019-01-31T21:25:45.979Z,30.49
2019-01-31T21:28:12.422Z,30.43
2019-01-31T21:30:38.808Z,30.43
2019-01-31T21:33:05.146Z,30.39
2019-01-31T21:35:31.479Z,30.33
2019-01-31T21:37:57.826Z,30.41
2019-01-31T21:40:24.165Z,30.36
2019-01-31T21:42:50.573Z,30.36
2019-01-31T21:45:16.902Z,30.33
2019-01-31T21:47:43.222Z,30.20
2019-01-31T21:50:09.590Z,30.31
2019-01-31T21:52:35.927Z,30.33
2019-01-31T21:55:02.304Z,30.33
2019-01-31T21:57:28.761Z,30.53
2019-01-31T21:59:55.022Z,30.73
2019-01-31T22:02:21.344Z,30.73
2019-01-31T22:04:47.669Z,30.82
2019-01-31T22:07:14.013Z,30.92
2019-01-31T22:09:40.364Z,30.86
2019-01-31T22:12:06.759Z,31.10
2019-01-31T22:14:33.057Z,31.13
2019-01-31T22:16:59.384Z,31.02
2019-01-31T22:19:25.714Z,31.14
2019-01-31T22:21:52.056Z,31.18
2019-01-31T22:24:18.524Z,31.17
2019-01-31T22:26:44.923Z,31.30
2019-01-31T22:29:11.295Z,31.29
2019-01-31T22:31:37.657Z,31.43
2019-01-31T22:34:04.007Z,31.38
2019-01-31T22:36:30.338Z,31.46
2019-01-31T22:38:56.675Z,31.40
2019-01-31T22:41:23.046Z,31.44
2019-01-31T22:43:50.530Z,31.46
2019-01-31T22:46:15.720Z,31.46
2019-01-31T22:48:42.023Z,31.50
2019-01-31T22:51:08.426Z,31.52
2019-01-31T22:53:34.722Z,31.59
2019-01-31T22:56:01.084Z,31.54
2019-01-31T22:58:27.414Z,31.53
2019-01-31T23:00:53.733Z,31.66
2019-01-31T23:03:20.075Z,31.62
2019-01-31T23:05:46.403Z,31.64
2019-01-31T23:08:12.803Z,31.59
2019-01-31T23:10:39.140Z,31.62
2019-01-31T23:13:05.468Z,31.68
2019-01-31T23:15:31.802Z,31.59
2019-01-31T23:17:58.134Z,31.53
2019-01-31T23:20:24.495Z,31.54
2019-01-31T23:22:50.869Z,31.78
2019-01-31T23:25:17.159Z,31.78
2019-01-31T23:27:43.503Z,31.71
2019-01-31T23:30:09.832Z,31.62
2019-01-31T23:32:36.168Z,31.80
2019-01-31T23:35:02.508Z,31.63
2019-01-31T23:37:28.932Z,31.84
2019-01-31T23:39:55.260Z,31.76
2019-01-31T23:42:21.603Z,31.71
2019-01-31T23:44:47.933Z,31.68
2019-01-31T23:47:14.305Z,31.72
2019-01-31T23:49:40.637Z,31.77
2019-01-31T23:52:06.968Z,31.80
2019-01-31T23:54:33.314Z,31.82
2019-01-31T23:56:59.649Z,31.78
2019-01-31T23:59:25.979Z,31.85
